Union City, MO

7:36 AM CDT on May 22, 2015 (GMT -0500)
Rose Hill Acres | | Change Station
CLOSE
Current Station
Personal Weather Station
Location: Billings, MO
Elevation: 1339 ft
Nearby Weather Stations

Elev 1339 ft 37.09 °N, 93.55 °W | Updated 25 seconds ago

Clear
Clear
50.4 °F
Feels Like 50.4 °F
N
2.9
Wind Variable Wind from SE
Gusts 6.0 mph

Today
High -- | Low -- °F
--% Chance of Precip.
Yesterday
High -- | Low -- °F
Precip. -- in
6:01 AM 8:21 PM
Waxing Crescent, 21% visible
Pressure 30.25 in
Visibility 10.0 miles
Clouds Clear
Dew Point 46 °F
Humidity 86%
Rainfall 0.00 in
Snow Depth Not available.
UV 0 out of 12
Pollen 9.10 out of 12
Air Quality Not available.
Flu Activity Sporadic
METAR KSGF 221152Z 15006KT 10SM CLR 09/06 A3025 RMK AO2 SLP241 T00890061 10089 20056 51014

More Conditions Fewer Conditions

Pressure 30.25 in
Visibility 10.0 miles
Clouds Clear
Dew Point 46 °F
Humidity 86%
Rainfall 0.00 in
Snow Depth Not available.
UV 0 out of 12
Pollen 9.10 out of 12
Air Quality Not available.
Flu Activity Sporadic
METAR KSGF 221152Z 15006KT 10SM CLR 09/06 A3025 RMK AO2 SLP241 T00890061 10089 20056 51014

More Conditions Fewer Conditions

10-Day Weather Forecast

Almanac

Astronomy

May. 22, 2015 Rise Set
Actual Time
Civil Twilight
Nautical Twilight
Astronomical Twilight
Moon
Length of Visible Light
Length of Day
Tomorrow will be .
, % of the Moon is Illuminated

Today's Extremes

State Highs State Lows

Community

WunderPhotos

Upload Photos

1,823,209 photos uploaded!

WunderBlogs® & News

Nearby

Air Quality

  Air Quality AQ Index Pollutant
Not available.

Snow Depth

Station Depth Elevation

Earthquake Activity

City Distance Mag. Time & Date
Minimum magnitude displayed is 2.5.

Coastal Water Temperatures

Place Temperature

Stations

Nearby Weather Stations

Station Location Temp. Windchill Dew Point Humidity Wind Precip. Elev Updated Type